Time;durP1;ratioP1;P1;durP2;ratioP2;P2;SDS_P1;SDS_P2;PMS_P1;PMS_P2;Temp;Humidity;BMP_temperature;BMP_pressure;BME280_temperature;BME280_humidity;BME280_pressure;Samples;Min_cycle;Max_cycle;Signal;HPM_P1;HPM_P2
2022/03/19 00:00:32;;;;;;;12.63;4.57;;;3.80;99.90;;;;;;5058430;28;20059;-79
2022/03/19 00:02:57;;;;;;;15.45;4.00;;;3.70;99.90;;;;;;5068161;28;20045;-78
2022/03/19 00:05:23;;;;;;;26.35;5.28;;;3.80;99.90;;;;;;5066235;28;20052;-79
2022/03/19 00:07:50;;;;;;;21.45;5.07;;;3.70;99.90;;;;;;5064868;28;20479;-78
2022/03/19 00:10:16;;;;;;;18.83;4.63;;;3.60;99.90;;;;;;5060699;28;20045;-77
2022/03/19 00:12:42;;;;;;;16.60;3.55;;;3.50;99.90;;;;;;5058129;28;20475;-77
2022/03/19 00:15:09;;;;;;;13.77;4.13;;;3.50;99.90;;;;;;5061268;28;20051;-77
2022/03/19 00:17:35;;;;;;;22.63;5.22;;;3.50;99.90;;;;;;5062135;28;20048;-77
2022/03/19 00:20:01;;;;;;;25.00;4.97;;;3.70;99.90;;;;;;5069911;28;20084;-77
2022/03/19 00:22:27;;;;;;;18.38;6.13;;;3.70;99.90;;;;;;5060333;28;20068;-76
2022/03/19 00:24:53;;;;;;;20.67;4.88;;;3.70;99.90;;;;;;5063366;28;20083;-77
2022/03/19 00:27:19;;;;;;;20.48;4.45;;;3.70;99.90;;;;;;5059890;28;20491;-77
2022/03/19 00:29:44;;;;;;;23.95;4.22;;;3.60;99.90;;;;;;5056424;28;20087;-78
2022/03/19 00:32:10;;;;;;;17.73;3.70;;;3.60;99.90;;;;;;5058665;28;20408;-78
2022/03/19 00:34:36;;;;;;;25.85;5.80;;;3.60;99.90;;;;;;5057979;28;20056;-78
2022/03/19 00:37:01;;;;;;;16.38;3.95;;;3.60;99.90;;;;;;5062878;28;20513;-78
2022/03/19 00:39:27;;;;;;;14.88;4.55;;;3.60;99.90;;;;;;5041061;28;20041;-76
2022/03/19 00:41:52;;;;;;;21.38;6.07;;;3.70;99.90;;;;;;5066536;28;20044;-78
2022/03/19 00:44:22;;;;;;;24.42;4.63;;;3.60;99.90;;;;;;5066599;28;20169;-79
2022/03/19 00:46:48;;;;;;;21.83;5.55;;;3.60;99.90;;;;;;5066807;28;20403;-78
2022/03/19 00:49:14;;;;;;;19.27;5.85;;;3.60;99.90;;;;;;5065040;28;20178;-78
2022/03/19 00:51:40;;;;;;;17.35;4.85;;;3.50;99.90;;;;;;5070957;28;20127;-77
2022/03/19 00:54:07;;;;;;;19.02;4.70;;;3.50;99.90;;;;;;5053457;28;20041;-78
2022/03/19 00:56:33;;;;;;;23.15;5.50;;;3.50;99.90;;;;;;5070709;28;20055;-78
2022/03/19 00:58:58;;;;;;;18.20;5.35;;;3.50;99.90;;;;;;5064131;28;20570;-79
2022/03/19 01:01:24;;;;;;;22.23;6.05;;;3.50;99.90;;;;;;5063431;28;20048;-78
2022/03/19 01:03:50;;;;;;;23.67;4.47;;;3.50;99.90;;;;;;5069115;28;20036;-78
2022/03/19 01:06:15;;;;;;;23.35;5.85;;;3.60;99.90;;;;;;5067259;28;20040;-78
2022/03/19 01:08:41;;;;;;;23.65;5.05;;;3.50;99.90;;;;;;5068480;28;20045;-78
2022/03/19 01:11:06;;;;;;;13.07;4.20;;;3.40;99.90;;;;;;5052394;28;20053;-79
2022/03/19 01:13:32;;;;;;;22.77;6.45;;;3.40;99.90;;;;;;5060711;28;20052;-78
2022/03/19 01:15:58;;;;;;;26.45;5.57;;;3.40;99.90;;;;;;5069117;28;20185;-78
2022/03/19 01:18:24;;;;;;;26.23;5.32;;;3.50;99.90;;;;;;5062858;28;20531;-78
2022/03/19 01:20:49;;;;;;;13.50;3.97;;;3.50;99.90;;;;;;5052643;28;20124;-78
2022/03/19 01:23:15;;;;;;;21.42;5.50;;;3.50;99.90;;;;;;5070707;28;20168;-78
2022/03/19 01:25:41;;;;;;;16.33;4.55;;;3.50;99.90;;;;;;5070302;28;20051;-78
2022/03/19 01:28:06;;;;;;;16.83;3.78;;;3.40;99.90;;;;;;5065148;28;20037;-78
2022/03/19 01:30:32;;;;;;;18.30;5.25;;;3.30;99.90;;;;;;5054212;28;20468;-78
2022/03/19 01:32:58;;;;;;;10.38;3.47;;;3.30;99.90;;;;;;5069671;28;20080;-78
2022/03/19 01:35:23;;;;;;;20.45;5.20;;;3.20;99.90;;;;;;5064427;28;20040;-78
2022/03/19 01:37:49;;;;;;;13.20;5.10;;;3.20;99.90;;;;;;5071018;28;20515;-79
2022/03/19 01:40:17;;;;;;;14.90;5.88;;;3.00;99.90;;;;;;5062187;28;20503;-80
2022/03/19 01:42:46;;;;;;;19.58;6.05;;;3.00;99.90;;;;;;5067779;28;20574;-78
2022/03/19 01:45:17;;;;;;;22.30;6.60;;;2.90;99.90;;;;;;5069360;28;20427;-79
2022/03/19 01:47:44;;;;;;;16.25;4.55;;;3.00;99.90;;;;;;5070128;28;20052;-79
2022/03/19 01:50:11;;;;;;;16.92;4.35;;;3.10;99.90;;;;;;5064737;28;20073;-79
2022/03/19 01:52:37;;;;;;;30.25;6.15;;;3.20;99.90;;;;;;5056107;28;20045;-78
2022/03/19 01:55:04;;;;;;;21.30;5.50;;;3.20;99.90;;;;;;5069415;28;20041;-78
2022/03/19 01:57:34;;;;;;;20.33;4.72;;;3.10;99.90;;;;;;5061967;28;20056;-78
2022/03/19 02:00:00;;;;;;;;;;;3.10;99.90;;;;;;5059476;28;20053;-78
2022/03/19 02:02:27;;;;;;;20.20;3.85;;;3.00;99.90;;;;;;5066246;28;19920;-77
2022/03/19 02:04:53;;;;;;;15.40;4.28;;;2.90;99.90;;;;;;5068699;28;20045;-78
2022/03/19 02:07:19;;;;;;;17.40;4.75;;;2.90;99.90;;;;;;5055396;28;20045;-78
2022/03/19 02:09:45;;;;;;;17.75;4.93;;;3.00;99.90;;;;;;5068439;28;20052;-78
2022/03/19 02:12:11;;;;;;;19.17;4.28;;;2.90;99.90;;;;;;5067539;28;20044;-78
2022/03/19 02:14:38;;;;;;;16.63;4.40;;;2.90;99.90;;;;;;5064058;28;20454;-79
2022/03/19 02:17:04;;;;;;;11.63;3.83;;;2.90;99.90;;;;;;5071623;28;20041;-79
2022/03/19 02:19:31;;;;;;;15.90;4.90;;;2.90;99.90;;;;;;5063496;28;20052;-79
2022/03/19 02:21:57;;;;;;;21.48;5.57;;;3.00;99.90;;;;;;5071595;28;20145;-77
2022/03/19 02:27:07;;;;;;;19.77;4.15;;;2.90;99.90;;;;;;5072077;28;20045;-78
2022/03/19 02:29:32;;;;;;;14.13;3.88;;;2.90;99.90;;;;;;5062626;28;20380;-78
2022/03/19 02:32:08;;;;;;;16.65;3.20;;;2.90;99.90;;;;;;5056370;28;20041;-78
2022/03/19 02:34:34;;;;;;;15.13;5.03;;;2.90;99.90;;;;;;5057679;28;20091;-78
2022/03/19 02:37:00;;;;;;;15.73;3.40;;;2.90;99.90;;;;;;5069926;28;20744;-78
2022/03/19 02:39:30;;;;;;;17.45;4.00;;;2.90;99.90;;;;;;5069447;28;20522;-79
2022/03/19 02:41:58;;;;;;;;;;;3.00;99.90;;;;;;5071420;28;20076;-78
2022/03/19 02:44:23;;;;;;;24.30;4.97;;;3.10;99.90;;;;;;5062770;28;19928;-79
2022/03/19 02:46:52;;;;;;;18.50;3.92;;;3.10;99.90;;;;;;5071308;28;20051;-79
2022/03/19 02:49:18;;;;;;;24.20;5.15;;;3.00;99.90;;;;;;5067624;28;20157;-80
2022/03/19 02:51:46;;;;;;;18.35;5.07;;;3.00;99.90;;;;;;5066924;28;20059;-78
2022/03/19 02:54:14;;;;;;;13.57;3.85;;;2.90;99.90;;;;;;5064544;28;20044;-79
2022/03/19 02:56:42;;;;;;;29.63;4.65;;;3.00;99.90;;;;;;5068164;28;20040;-80
2022/03/19 02:59:09;;;;;;;16.25;4.70;;;2.80;99.90;;;;;;5055443;28;20048;-80
2022/03/19 03:01:37;;;;;;;27.52;5.68;;;2.90;99.90;;;;;;5061200;28;20088;-78
2022/03/19 03:04:03;;;;;;;12.75;3.00;;;2.80;99.90;;;;;;5065885;28;20044;-79
2022/03/19 03:06:33;;;;;;;15.75;3.95;;;2.80;99.90;;;;;;5064230;28;20049;-78
2022/03/19 03:08:58;;;;;;;16.77;3.67;;;2.90;99.90;;;;;;5066189;28;20040;-79
2022/03/19 03:11:24;;;;;;;17.90;3.67;;;2.90;99.90;;;;;;5066960;28;20113;-78
2022/03/19 03:13:50;;;;;;;16.17;3.95;;;3.00;99.90;;;;;;5069304;28;20105;-79
2022/03/19 03:16:16;;;;;;;16.85;4.07;;;2.80;99.90;;;;;;5063477;28;20441;-79
2022/03/19 03:18:41;;;;;;;17.67;5.95;;;2.90;99.90;;;;;;5062410;28;20099;-79
2022/03/19 03:21:07;;;;;;;25.67;4.97;;;2.90;99.90;;;;;;5055522;28;20081;-79
2022/03/19 03:23:34;;;;;;;20.80;5.72;;;3.00;99.90;;;;;;5060950;28;20131;-79
2022/03/19 03:25:59;;;;;;;18.45;4.88;;;3.10;99.90;;;;;;5063741;28;20467;-79
2022/03/19 03:28:25;;;;;;;16.27;3.40;;;3.10;99.90;;;;;;5066999;28;20068;-79
2022/03/19 03:30:51;;;;;;;16.60;3.72;;;3.00;99.90;;;;;;5059171;28;20505;-78
2022/03/19 03:33:16;;;;;;;18.50;4.45;;;3.00;99.90;;;;;;5055734;28;20124;-79
2022/03/19 03:35:42;;;;;;;13.23;4.65;;;3.00;99.90;;;;;;5062726;28;20123;-79
2022/03/19 03:38:08;;;;;;;19.98;4.50;;;3.00;99.90;;;;;;5057547;28;20050;-79
2022/03/19 03:40:33;;;;;;;33.67;9.13;;;3.00;99.90;;;;;;5067394;28;20123;-79
2022/03/19 03:42:59;;;;;;;25.73;3.97;;;3.10;99.90;;;;;;5069866;28;20483;-78
2022/03/19 03:45:29;;;;;;;35.05;5.60;;;3.10;99.90;;;;;;5058176;28;20041;-79
2022/03/19 03:47:54;;;;;;;17.15;4.10;;;3.10;99.90;;;;;;5063057;28;20091;-78
2022/03/19 03:50:20;;;;;;;20.80;4.32;;;2.90;99.90;;;;;;5066059;28;20076;-79
2022/03/19 03:52:46;;;;;;;19.15;4.47;;;3.00;99.90;;;;;;5068516;28;20559;-79
2022/03/19 03:55:12;;;;;;;14.98;4.85;;;2.90;99.90;;;;;;5063316;28;20048;-80
2022/03/19 03:57:38;;;;;;;14.80;3.78;;;3.00;99.90;;;;;;5069666;28;20050;-79
2022/03/19 04:00:08;;;;;;;16.70;4.30;;;3.00;99.90;;;;;;5059413;28;20036;-80
2022/03/19 04:02:34;;;;;;;14.68;5.00;;;2.90;99.90;;;;;;5060503;28;20516;-79
2022/03/19 04:05:00;;;;;;;16.73;3.85;;;2.90;99.90;;;;;;5063857;28;20036;-79
2022/03/19 04:07:27;;;;;;;14.73;4.82;;;2.90;99.90;;;;;;5064314;28;20036;-78
2022/03/19 04:09:53;;;;;;;12.55;4.00;;;3.00;99.90;;;;;;5069291;28;20032;-79
2022/03/19 04:12:19;;;;;;;18.25;5.28;;;3.00;99.90;;;;;;5066782;28;20669;-78
2022/03/19 04:14:44;;;;;;;17.83;5.28;;;3.00;99.90;;;;;;5065466;28;20059;-79
2022/03/19 04:17:10;;;;;;;14.88;4.28;;;3.00;99.90;;;;;;5065531;28;20032;-79
2022/03/19 04:19:35;;;;;;;29.20;7.32;;;3.00;99.90;;;;;;5066278;28;20051;-79
2022/03/19 04:22:01;;;;;;;25.60;5.15;;;3.00;99.90;;;;;;5062268;28;20119;-79
2022/03/19 04:24:27;;;;;;;23.77;6.63;;;3.00;99.90;;;;;;5067586;28;20036;-79
2022/03/19 04:26:52;;;;;;;17.17;5.15;;;3.00;99.90;;;;;;5061887;28;20113;-78
2022/03/19 04:29:18;;;;;;;15.52;4.60;;;3.00;99.90;;;;;;5057792;28;20101;-79
2022/03/19 04:31:44;;;;;;;13.73;4.80;;;3.00;99.90;;;;;;5056700;28;20044;-78
2022/03/19 04:34:09;;;;;;;19.33;5.78;;;3.00;99.90;;;;;;5055561;28;20101;-79
2022/03/19 04:36:38;;;;;;;18.58;5.40;;;3.00;99.90;;;;;;5068124;28;20068;-79
2022/03/19 04:39:05;;;;;;;28.92;7.72;;;3.00;99.90;;;;;;5066731;28;20112;-78
2022/03/19 04:41:32;;;;;;;14.70;4.82;;;3.10;99.90;;;;;;5067942;28;20131;-78
2022/03/19 04:43:58;;;;;;;15.45;4.80;;;3.10;99.90;;;;;;5066507;28;20045;-79
2022/03/19 04:46:23;;;;;;;21.83;6.00;;;3.00;99.90;;;;;;5054204;28;20407;-78
2022/03/19 04:48:49;;;;;;;24.65;7.40;;;3.10;99.90;;;;;;5063065;28;20515;-77
2022/03/19 04:51:17;;;;;;;26.20;7.97;;;3.20;99.90;;;;;;5052882;28;20056;-78
2022/03/19 04:53:50;;;;;;;16.05;6.07;;;3.10;99.90;;;;;;5066085;28;20040;-79
2022/03/19 04:56:23;;;;;;;21.33;7.28;;;3.30;99.90;;;;;;5060041;28;20189;-79
2022/03/19 04:58:50;;;;;;;22.02;6.97;;;3.20;99.90;;;;;;5053835;28;20121;-77
2022/03/19 05:01:16;;;;;;;21.50;9.43;;;3.30;99.90;;;;;;5058481;28;20048;-79
2022/03/19 05:03:42;;;;;;;19.33;6.13;;;3.30;99.90;;;;;;5067295;28;20046;-77
2022/03/19 05:06:08;;;;;;;19.38;8.02;;;3.40;99.90;;;;;;5064269;28;20131;-79
2022/03/19 05:08:33;;;;;;;22.60;6.82;;;3.40;99.90;;;;;;5068058;28;20040;-78
2022/03/19 05:11:14;;;;;;;33.58;8.07;;;3.50;99.90;;;;;;5066051;28;20083;-79
2022/03/19 05:13:53;;;;;;;28.13;7.65;;;3.50;99.90;;;;;;5069501;28;20048;-78
2022/03/19 05:16:18;;;;;;;16.35;5.32;;;3.40;99.90;;;;;;5063940;28;20414;-78
2022/03/19 05:18:44;;;;;;;23.83;6.50;;;3.50;99.90;;;;;;5067951;28;20048;-79
2022/03/19 05:21:12;;;;;;;19.65;7.32;;;3.50;99.90;;;;;;5065905;28;20036;-78
2022/03/19 05:23:38;;;;;;;17.05;5.50;;;3.50;99.90;;;;;;5069461;28;20510;-80
2022/03/19 05:26:03;;;;;;;17.35;5.65;;;3.50;99.90;;;;;;5067265;28;20037;-79
2022/03/19 05:28:29;;;;;;;23.27;8.88;;;3.50;99.90;;;;;;5064162;28;20039;-79
2022/03/19 05:30:57;;;;;;;31.55;6.95;;;3.60;99.90;;;;;;5061294;28;20036;-79
2022/03/19 05:36:07;;;;;;;21.73;7.20;;;3.50;99.90;;;;;;5063950;28;20048;-79
2022/03/19 05:38:33;;;;;;;18.70;5.93;;;3.50;99.90;;;;;;5072371;28;20577;-78
2022/03/19 05:40:59;;;;;;;21.30;5.22;;;3.50;99.90;;;;;;5065023;28;20045;-79
2022/03/19 05:43:25;;;;;;;27.83;8.20;;;3.50;99.90;;;;;;5073098;28;20033;-78
2022/03/19 05:45:50;;;;;;;11.98;5.53;;;3.50;99.90;;;;;;5070745;28;20083;-78
2022/03/19 05:48:16;;;;;;;22.50;6.10;;;3.60;99.90;;;;;;5069596;28;20697;-79
2022/03/19 05:50:42;;;;;;;20.90;7.25;;;3.50;99.90;;;;;;5068989;28;20044;-78
2022/03/19 05:53:08;;;;;;;20.35;7.55;;;3.50;99.90;;;;;;5070274;28;20455;-78
2022/03/19 05:55:34;;;;;;;27.20;7.68;;;3.50;99.90;;;;;;5071043;28;20132;-77
2022/03/19 05:58:00;;;;;;;23.13;6.97;;;3.60;99.90;;;;;;5065456;28;20036;-78
2022/03/19 06:00:25;;;;;;;22.10;5.97;;;3.60;99.90;;;;;;5055431;28;20443;-75
2022/03/19 06:02:51;;;;;;;21.52;6.65;;;3.60;99.90;;;;;;5070114;28;20068;-79
2022/03/19 06:05:16;;;;;;;29.15;9.10;;;3.70;99.90;;;;;;5071260;28;20065;-78
2022/03/19 06:07:42;;;;;;;24.33;7.78;;;3.90;99.90;;;;;;5059381;28;20098;-79
2022/03/19 06:10:08;;;;;;;14.88;6.88;;;4.00;99.90;;;;;;5070720;28;20538;-79
2022/03/19 06:12:34;;;;;;;23.42;8.75;;;4.10;99.90;;;;;;5064857;28;20071;-77
2022/03/19 06:15:00;;;;;;;17.67;6.47;;;3.90;99.90;;;;;;5069206;28;20072;-78
2022/03/19 06:17:26;;;;;;;21.38;8.13;;;3.90;99.90;;;;;;5060086;28;20047;-76
2022/03/19 06:19:52;;;;;;;25.10;6.90;;;3.90;99.90;;;;;;5071568;28;20098;-76
2022/03/19 06:22:17;;;;;;;22.75;6.72;;;4.00;99.90;;;;;;5069050;28;20075;-77
2022/03/19 06:24:43;;;;;;;17.90;5.60;;;4.00;99.90;;;;;;5071243;28;20076;-76
2022/03/19 06:27:08;;;;;;;21.42;8.27;;;4.00;99.90;;;;;;5053561;28;20036;-79
2022/03/19 06:29:34;;;;;;;18.10;6.82;;;4.00;99.90;;;;;;5058360;28;20041;-76
2022/03/19 06:32:00;;;;;;;17.92;6.50;;;4.10;99.90;;;;;;5070376;28;20064;-78
2022/03/19 06:34:25;;;;;;;19.70;7.35;;;4.10;99.90;;;;;;5068219;28;20398;-78
2022/03/19 06:39:35;;;;;;;25.48;8.23;;;4.10;99.90;;;;;;5056427;28;20092;-78
2022/03/19 06:42:01;;;;;;;19.23;6.38;;;4.20;99.90;;;;;;5067369;28;20458;-78
2022/03/19 06:44:27;;;;;;;14.18;7.65;;;4.30;99.90;;;;;;5063158;28;20403;-77
2022/03/19 06:46:52;;;;;;;12.40;6.57;;;4.30;99.90;;;;;;5063569;28;20136;-80
2022/03/19 06:49:18;;;;;;;20.45;6.82;;;4.30;99.90;;;;;;5067214;28;20045;-78
2022/03/19 06:51:44;;;;;;;26.77;7.78;;;4.40;99.90;;;;;;5069662;28;20095;-76
2022/03/19 06:54:09;;;;;;;23.85;7.30;;;4.40;99.90;;;;;;5068132;28;20037;-78
2022/03/19 06:56:35;;;;;;;22.65;6.32;;;4.50;99.90;;;;;;5065774;28;20395;-77
2022/03/19 06:59:00;;;;;;;25.58;11.50;;;4.50;99.90;;;;;;5066446;28;20044;-78
2022/03/19 07:01:26;;;;;;;22.40;8.23;;;4.50;99.90;;;;;;5067517;28;20037;-80
2022/03/19 07:03:52;;;;;;;17.70;5.75;;;4.70;99.90;;;;;;5070078;28;20395;-77
2022/03/19 07:06:21;;;;;;;26.40;8.07;;;4.70;99.90;;;;;;5065579;28;20048;-79
2022/03/19 07:08:46;;;;;;;23.02;9.13;;;4.80;99.90;;;;;;5063673;28;20045;-78
2022/03/19 07:11:12;;;;;;;21.05;8.73;;;4.90;99.90;;;;;;5068985;28;20036;-80
2022/03/19 07:13:37;;;;;;;18.85;7.35;;;4.90;99.90;;;;;;5064655;28;20128;-78
2022/03/19 07:16:04;;;;;;;20.17;7.75;;;5.00;99.90;;;;;;5069538;28;20052;-81
2022/03/19 07:18:29;;;;;;;20.00;8.45;;;5.10;99.90;;;;;;5065628;28;20055;-78
2022/03/19 07:20:55;;;;;;;22.63;8.38;;;5.20;99.90;;;;;;5067453;28;20049;-80
2022/03/19 07:23:21;;;;;;;17.05;6.70;;;5.30;99.90;;;;;;5062189;28;20044;-80
2022/03/19 07:25:46;;;;;;;14.23;6.35;;;5.40;99.90;;;;;;5068980;28;20052;-80
2022/03/19 07:28:19;;;;;;;15.35;5.78;;;5.40;99.90;;;;;;5057002;28;20384;-77
2022/03/19 07:30:46;;;;;;;28.23;7.80;;;5.50;99.90;;;;;;5064037;28;20126;-79
2022/03/19 07:33:12;;;;;;;13.20;7.22;;;5.60;99.90;;;;;;5067194;28;20052;-80
2022/03/19 07:35:39;;;;;;;19.02;6.65;;;5.60;99.90;;;;;;5069641;28;20049;-81
2022/03/19 07:38:06;;;;;;;19.02;8.38;;;5.70;99.90;;;;;;5065494;28;20406;-79
2022/03/19 07:43:19;;;;;;;20.90;6.93;;;5.90;99.90;;;;;;5067933;28;20048;-80
2022/03/19 07:45:45;;;;;;;23.63;5.82;;;5.90;99.90;;;;;;5066714;28;20048;-82
2022/03/19 07:48:10;;;;;;;14.77;6.10;;;6.00;99.90;;;;;;5057944;28;20525;-84
2022/03/19 07:50:38;;;;;;;24.80;6.60;;;6.10;99.90;;;;;;5064485;28;20044;-82
2022/03/19 07:53:04;;;;;;;12.93;6.10;;;6.30;99.90;;;;;;5064785;28;20078;-80
2022/03/19 07:55:31;;;;;;;19.48;6.60;;;6.30;99.90;;;;;;5054882;28;20181;-79
2022/03/19 07:57:56;;;;;;;21.33;8.60;;;6.30;99.90;;;;;;5065103;28;20041;-78
2022/03/19 08:00:22;;;;;;;16.05;4.97;;;6.40;99.90;;;;;;5068144;28;20042;-78
2022/03/19 08:02:48;;;;;;;19.38;6.85;;;6.40;99.90;;;;;;5063262;28;20498;-78
2022/03/19 08:05:14;;;;;;;22.23;7.85;;;6.50;99.90;;;;;;5064593;28;20040;-79
2022/03/19 08:07:39;;;;;;;16.65;6.07;;;6.60;99.90;;;;;;5059637;28;20036;-78
2022/03/19 08:10:07;;;;;;;20.20;6.90;;;6.60;99.90;;;;;;5062039;28;20033;-78
2022/03/19 08:12:33;;;;;;;19.85;6.60;;;6.70;99.90;;;;;;5069837;28;20051;-78
2022/03/19 08:14:59;;;;;;;19.42;6.78;;;6.80;99.90;;;;;;5067315;28;20140;-78
2022/03/19 08:17:28;;;;;;;22.40;7.78;;;6.80;99.90;;;;;;5062712;28;20021;-79
2022/03/19 08:19:57;;;;;;;18.33;5.85;;;7.00;99.90;;;;;;5060744;28;20094;-78
2022/03/19 08:22:23;;;;;;;17.05;6.22;;;7.00;99.90;;;;;;5065664;28;20064;-76
2022/03/19 08:24:49;;;;;;;13.00;6.35;;;7.10;99.90;;;;;;5069230;28;20036;-81
2022/03/19 08:27:15;;;;;;;20.17;7.82;;;7.00;99.90;;;;;;5068843;28;20094;-79
2022/03/19 08:29:41;;;;;;;15.65;6.45;;;7.20;99.90;;;;;;5051087;28;20045;-78
2022/03/19 08:32:08;;;;;;;19.45;5.95;;;7.30;99.90;;;;;;5064464;28;20108;-83
2022/03/19 08:34:34;;;;;;;20.80;6.38;;;7.40;99.90;;;;;;5068253;28;20045;-81
2022/03/19 08:37:00;;;;;;;14.00;6.15;;;7.50;99.90;;;;;;5067378;28;20097;-82
2022/03/19 08:42:10;;;;;;;17.67;5.80;;;7.60;99.90;;;;;;5055661;28;20056;-84
2022/03/19 08:44:36;;;;;;;26.70;6.53;;;7.70;99.90;;;;;;5058990;28;20041;-81
2022/03/19 08:47:02;;;;;;;18.92;5.35;;;7.70;99.90;;;;;;5061441;28;20443;-82
2022/03/19 08:49:27;;;;;;;15.73;5.97;;;8.00;99.90;;;;;;5067398;28;20147;-81
2022/03/19 08:51:53;;;;;;;16.65;6.47;;;8.00;99.90;;;;;;5056762;28;20052;-80
2022/03/19 08:54:19;;;;;;;13.20;5.03;;;8.10;99.90;;;;;;5061314;28;20120;-83
2022/03/19 08:56:47;;;;;;;19.27;5.60;;;8.20;99.90;;;;;;5061126;28;20042;-82
2022/03/19 08:59:13;;;;;;;18.70;5.70;;;8.20;99.90;;;;;;5056858;28;20068;-82
2022/03/19 09:01:40;;;;;;;17.35;4.50;;;8.30;99.90;;;;;;5059285;28;20064;-82
2022/03/19 09:04:07;;;;;;;18.20;4.28;;;8.30;99.90;;;;;;5059076;28;20037;-81
2022/03/19 09:06:33;;;;;;;11.75;4.45;;;8.30;99.90;;;;;;5064157;28;20073;-81
2022/03/19 09:09:01;;;;;;;13.18;3.83;;;8.30;99.90;;;;;;5072003;28;20036;-83
2022/03/19 09:11:26;;;;;;;17.65;4.65;;;8.30;99.90;;;;;;5066921;28;20391;-77
2022/03/19 09:13:53;;;;;;;27.42;6.22;;;8.40;99.90;;;;;;5067973;28;20044;-81
2022/03/19 09:16:20;;;;;;;10.13;4.07;;;8.60;99.90;;;;;;5067757;28;20474;-81
2022/03/19 09:18:47;;;;;;;13.82;3.85;;;8.50;99.90;;;;;;5063585;28;20609;-81
2022/03/19 09:21:12;;;;;;;17.73;5.53;;;8.60;99.90;;;;;;5063666;28;20080;-83
2022/03/19 09:23:38;;;;;;;10.65;2.47;;;8.60;99.90;;;;;;5066263;28;20064;-82
2022/03/19 09:26:05;;;;;;;10.48;2.85;;;8.90;99.90;;;;;;5067625;28;20131;-80
2022/03/19 09:28:30;;;;;;;12.05;2.58;;;8.80;99.90;;;;;;5062822;28;20051;-82
2022/03/19 09:30:56;;;;;;;11.70;3.63;;;8.80;99.90;;;;;;5067756;28;20351;-82
2022/03/19 09:33:22;;;;;;;15.63;3.47;;;8.80;99.90;;;;;;5064659;28;20053;-82
2022/03/19 09:35:48;;;;;;;18.15;2.83;;;8.90;99.90;;;;;;5065548;28;21556;-81
2022/03/19 09:38:14;;;;;;;17.90;4.35;;;9.00;99.90;;;;;;5060215;28;20052;-82
2022/03/19 09:40:41;;;;;;;14.70;3.72;;;9.10;99.90;;;;;;5063854;28;20049;-82
2022/03/19 09:43:07;;;;;;;12.77;3.63;;;9.20;99.90;;;;;;5060583;28;20037;-80
2022/03/19 09:45:34;;;;;;;13.25;4.07;;;9.30;99.90;;;;;;5062573;28;20041;-81
2022/03/19 09:48:01;;;;;;;9.00;2.53;;;9.30;99.90;;;;;;5062295;28;20071;-83
2022/03/19 09:50:28;;;;;;;8.98;3.17;;;9.30;99.90;;;;;;5043329;28;20494;-78
2022/03/19 09:52:55;;;;;;;14.30;3.80;;;9.30;99.90;;;;;;5062985;28;20036;-76
2022/03/19 09:55:26;;;;;;;10.90;2.03;;;9.50;99.90;;;;;;5061013;28;20048;-78
2022/03/19 09:57:53;;;;;;;12.02;4.88;;;9.40;99.90;;;;;;5064480;28;20033;-76
2022/03/19 10:00:22;;;;;;;15.57;3.97;;;9.30;99.90;;;;;;5061108;28;20486;-79
2022/03/19 10:03:03;;;;;;;10.10;2.90;;;9.50;99.90;;;;;;5061136;28;20040;-77
2022/03/19 10:11:08;;;;;;;9.45;3.10;;;9.60;99.90;;;;;;5060111;28;20056;-77
2022/03/19 10:13:42;;;;;;;5.45;1.90;;;9.50;99.90;;;;;;5067712;28;20425;-77
2022/03/19 10:16:09;;;;;;;11.90;3.10;;;9.70;99.90;;;;;;5059906;28;20040;-78
2022/03/19 10:18:35;;;;;;;14.02;3.58;;;9.70;99.90;;;;;;5058394;28;20036;-80
2022/03/19 10:21:15;;;;;;;15.98;3.50;;;9.90;99.90;;;;;;5059976;28;20054;-80
2022/03/19 10:23:42;;;;;;;8.35;2.13;;;9.90;99.90;;;;;;5063378;28;20071;-83
2022/03/19 10:26:21;;;;;;;9.32;2.33;;;9.80;99.90;;;;;;5057816;28;20051;-74
2022/03/19 10:29:02;;;;;;;8.55;2.78;;;9.90;99.90;;;;;;5057405;28;20036;-79
2022/03/19 10:31:30;;;;;;;13.80;2.95;;;9.80;99.90;;;;;;5067539;28;20086;-80
2022/03/19 10:33:55;;;;;;;10.10;2.88;;;9.90;99.90;;;;;;5066885;28;20847;-79
2022/03/19 10:36:32;;;;;;;9.02;1.90;;;9.90;99.90;;;;;;5069733;28;20044;-84
2022/03/19 10:38:58;;;;;;;12.82;3.35;;;9.90;99.90;;;;;;5071819;28;20179;-83
2022/03/19 10:41:24;;;;;;;9.85;3.60;;;10.10;99.90;;;;;;5071890;28;20045;-84
2022/03/19 10:43:49;;;;;;;7.03;1.98;;;10.10;99.90;;;;;;5062175;28;20483;-85
2022/03/19 10:46:18;;;;;;;6.13;2.10;;;10.20;99.90;;;;;;5041005;28;20061;-84
2022/03/19 10:48:54;;;;;;;5.85;2.15;;;10.20;99.90;;;;;;5055957;28;20759;-84
2022/03/19 10:51:23;;;;;;;7.05;2.45;;;10.20;99.90;;;;;;5070762;28;20041;-84
2022/03/19 10:53:50;;;;;;;5.75;1.75;;;10.30;99.90;;;;;;5071060;28;20047;-83
2022/03/19 10:56:15;;;;;;;8.35;3.45;;;10.40;99.90;;;;;;5073795;28;20128;-83
2022/03/19 10:58:41;;;;;;;7.57;3.03;;;10.40;99.90;;;;;;5073169;28;20504;-85
2022/03/19 11:01:09;;;;;;;5.75;1.40;;;10.50;99.90;;;;;;5063804;28;20051;-84
2022/03/19 11:03:39;;;;;;;10.20;2.75;;;10.60;99.90;;;;;;5070115;28;20041;-84
2022/03/19 11:06:06;;;;;;;9.40;3.83;;;10.50;99.90;;;;;;5077548;28;20115;-82
2022/03/19 11:08:43;;;;;;;12.93;2.35;;;10.50;99.90;;;;;;5094049;28;20070;-83
2022/03/19 11:11:15;;;;;;;9.82;1.83;;;10.70;99.90;;;;;;5090085;28;20031;-81
2022/03/19 11:13:46;;;;;;;7.00;2.78;;;10.90;99.90;;;;;;5078055;28;20159;-86
2022/03/19 11:16:12;;;;;;;;;;;10.90;99.90;;;;;;5053862;28;20123;-77
2022/03/19 11:18:43;;;;;;;6.47;2.00;;;10.80;99.90;;;;;;5069277;28;20302;-80
2022/03/19 11:21:09;;;;;;;9.07;1.92;;;10.90;99.90;;;;;;5062098;28;20064;-81
2022/03/19 11:23:57;;;;;;;7.20;2.17;;;11.10;99.90;;;;;;5058294;28;20041;-79
2022/03/19 11:26:26;;;;;;;8.32;2.67;;;10.90;99.90;;;;;;5070574;28;20115;-77
2022/03/19 11:28:53;;;;;;;15.48;2.80;;;11.00;99.90;;;;;;5056071;28;20041;-79
2022/03/19 11:31:29;;;;;;;5.43;2.42;;;10.90;99.90;;;;;;5067180;28;20047;-75
2022/03/19 11:34:04;;;;;;;12.25;2.30;;;11.00;99.90;;;;;;5059058;28;20102;-76
2022/03/19 11:36:29;;;;;;;7.38;1.98;;;10.80;99.90;;;;;;5051828;28;20049;-77
2022/03/19 11:38:56;;;;;;;2.10;1.40;;;10.90;99.90;;;;;;5069506;28;20082;-77
2022/03/19 11:41:25;;;;;;;5.15;1.85;;;11.10;99.90;;;;;;5069367;28;20047;-76
2022/03/19 11:44:22;;;;;;;6.28;1.83;;;11.00;99.90;;;;;;5059059;28;20045;-78
2022/03/19 11:47:03;;;;;;;6.18;1.35;;;11.10;99.90;;;;;;5057365;28;20089;-76
2022/03/19 11:49:48;;;;;;;;;;;11.30;99.90;;;;;;5068896;28;20063;-78
2022/03/19 11:52:26;;;;;;;8.77;2.92;;;11.30;99.90;;;;;;5062138;28;19990;-78
2022/03/19 11:55:01;;;;;;;5.82;2.63;;;11.30;99.90;;;;;;5069236;28;20056;-79
2022/03/19 11:57:28;;;;;;;7.95;2.97;;;11.30;99.90;;;;;;5055920;28;20135;-77
2022/03/19 11:59:59;;;;;;;3.70;1.02;;;11.30;99.90;;;;;;5064158;28;20452;-78
2022/03/19 12:02:26;;;;;;;4.53;1.20;;;11.40;99.90;;;;;;5067773;28;20394;-75
2022/03/19 12:04:55;;;;;;;4.30;1.60;;;11.40;99.90;;;;;;5065983;28;20249;-76
2022/03/19 12:07:41;;;;;;;7.70;2.40;;;11.20;99.90;;;;;;5061852;28;20037;-77
2022/03/19 12:10:20;;;;;;;8.73;2.80;;;11.20;99.90;;;;;;5049962;28;20052;-78
2022/03/19 12:12:46;;;;;;;6.22;1.65;;;11.30;99.90;;;;;;5067656;28;20721;-77
2022/03/19 12:15:31;;;;;;;4.78;1.30;;;11.40;99.90;;;;;;5065072;28;20491;-77
2022/03/19 12:18:22;;;;;;;6.40;2.10;;;11.20;99.90;;;;;;5054466;28;20333;-76
2022/03/19 12:20:49;;;;;;;6.13;1.20;;;11.20;99.90;;;;;;5055846;28;20049;-77
2022/03/19 12:23:14;;;;;;;6.30;1.95;;;11.20;99.90;;;;;;5068710;28;20052;-76
2022/03/19 12:25:43;;;;;;;4.93;1.67;;;11.30;99.90;;;;;;5068370;28;20044;-79
2022/03/19 12:28:14;;;;;;;3.58;1.38;;;11.30;99.90;;;;;;5065173;28;20458;-79
2022/03/19 12:30:40;;;;;;;6.10;1.75;;;11.40;99.90;;;;;;5069141;28;20052;-78
2022/03/19 12:33:06;;;;;;;5.72;1.60;;;11.30;99.90;;;;;;5051106;28;20043;-77
2022/03/19 12:35:39;;;;;;;3.55;1.50;;;11.30;99.90;;;;;;5057775;28;20120;-79
2022/03/19 12:38:05;;;;;;;1.80;0.80;;;11.30;99.90;;;;;;5046284;28;20047;-77
2022/03/19 12:41:23;;;;;;;4.30;1.15;;;11.30;99.90;;;;;;5068741;28;20040;-78
2022/03/19 12:43:18;;;;;;;3.15;1.33;;;11.30;99.10;;;;;;5067591;28;20109;-78
2022/03/19 12:45:51;;;;;;;1.90;0.90;;;11.40;99.20;;;;;;5068108;28;20048;-79
2022/03/19 12:48:21;;;;;;;2.80;0.77;;;11.70;99.90;;;;;;5070164;28;20091;-78
2022/03/19 12:50:53;;;;;;;2.33;0.88;;;11.90;99.90;;;;;;5070156;28;20084;-79
2022/03/19 12:53:35;;;;;;;2.95;0.70;;;11.80;99.90;;;;;;5068905;28;20036;-77
2022/03/19 12:56:12;;;;;;;9.35;1.98;;;11.70;96.50;;;;;;5064499;28;20032;-78
2022/03/19 12:58:38;;;;;;;4.07;1.77;;;11.70;98.10;;;;;;5068608;28;20044;-79
2022/03/19 13:01:07;;;;;;;4.68;0.95;;;11.80;98.90;;;;;;5064384;28;20041;-77
2022/03/19 13:03:33;;;;;;;3.33;0.93;;;11.80;99.50;;;;;;5056215;28;20040;-79
2022/03/19 13:05:58;;;;;;;3.10;0.85;;;11.60;97.60;;;;;;5061185;28;20043;-78
2022/03/19 13:08:24;;;;;;;2.95;1.65;;;11.90;98.20;;;;;;5070242;28;20453;-79